Terminal Aerodrome Forecast
Issued by NWS

Home | Current Version | Previous Version | Text Only | Print | Product List | Glossary On
Versions: 1 2 3 4 5 6 7 8 9 10 11 12 13 14 15 16 17 18 19 20 21
000
FTUS41 KPBZ 040135 AAC
TAFDUJ
TAF AMD
KDUJ 040135Z 0402/0424 00000KT 3SM BR SKC
     FM040600 29005KT P6SM SKC
     FM040800 VRB03KT 1SM BR SKC
     FM041300 25006KT P6SM SKC
     FM041700 26009G16KT P6SM SKC=

USA.gov is the U.S. government's official web portal to all federal, state and local government web resources and services.